Time;durP1;ratioP1;P1;durP2;ratioP2;P2;SDS_P1;SDS_P2;PMS_P1;PMS_P2;Temp;Humidity;BMP_temperature;BMP_pressure;BME280_temperature;BME280_humidity;BME280_pressure;Samples;Min_cycle;Max_cycle;Signal;HPM_P1;HPM_P2
2022/06/12 00:00:46;;;;;;;7.57;6.77;;;21.20;85.30;;;;;;4991877;28;20451;-51
2022/06/12 00:03:15;;;;;;;8.67;6.60;;;21.10;85.70;;;;;;4991742;28;20437;-52
2022/06/12 00:05:45;;;;;;;8.97;7.53;;;21.10;86.00;;;;;;4991941;28;20471;-51
2022/06/12 00:08:12;;;;;;;7.97;6.70;;;20.90;86.50;;;;;;4991776;28;20483;-52
2022/06/12 00:10:43;;;;;;;12.03;7.13;;;21.10;86.70;;;;;;4991663;28;20436;-52
2022/06/12 00:13:12;;;;;;;7.43;5.63;;;20.90;87.00;;;;;;4991918;28;20437;-51
2022/06/12 00:15:40;;;;;;;6.80;6.10;;;20.90;87.40;;;;;;4991753;28;20821;-51
2022/06/12 00:18:08;;;;;;;7.50;5.73;;;21.00;87.70;;;;;;4991530;28;20441;-51
2022/06/12 00:20:34;;;;;;;7.47;6.67;;;21.10;88.00;;;;;;4991564;28;20460;-51
2022/06/12 00:23:05;;;;;;;9.77;6.77;;;20.90;88.50;;;;;;4991863;28;20459;-52
2022/06/12 00:25:32;;;;;;;8.10;7.30;;;20.90;88.90;;;;;;4991684;28;20943;-52
2022/06/12 00:27:59;;;;;;;6.83;5.90;;;20.90;89.30;;;;;;4991888;28;20486;-52
2022/06/12 00:30:26;;;;;;;6.93;6.23;;;20.90;89.30;;;;;;4990286;28;20458;-51
2022/06/12 00:32:55;;;;;;;7.90;7.10;;;20.90;89.80;;;;;;4992419;28;20447;-52
2022/06/12 00:35:24;;;;;;;6.60;6.00;;;20.70;89.80;;;;;;4995055;28;20463;-51
2022/06/12 00:37:51;;;;;;;14.03;9.30;;;20.90;90.10;;;;;;4995709;28;20479;-52
2022/06/12 00:40:18;;;;;;;8.37;6.57;;;20.70;90.10;;;;;;4994964;28;21125;-52
2022/06/12 00:42:48;;;;;;;7.90;6.80;;;20.80;90.30;;;;;;4995313;28;20975;-51
2022/06/12 00:45:43;;;;;;;9.13;6.87;;;20.90;90.50;;;;;;4995337;28;20943;-53
2022/06/12 00:48:17;;;;;;;8.17;7.37;;;20.80;90.90;;;;;;4994956;28;20490;-53
2022/06/12 00:50:49;;;;;;;8.20;6.83;;;20.40;90.40;;;;;;4994841;28;20459;-53
2022/06/12 00:53:19;;;;;;;11.53;7.10;;;20.80;90.70;;;;;;4995085;28;20439;-53
2022/06/12 00:55:54;;;;;;;7.77;6.97;;;20.80;91.00;;;;;;4994904;28;20450;-52
2022/06/12 00:58:23;;;;;;;8.50;7.50;;;20.80;91.00;;;;;;4994887;28;20480;-52
2022/06/12 01:00:51;;;;;;;7.77;6.70;;;20.70;91.10;;;;;;4994695;28;20439;-51
2022/06/12 01:03:20;;;;;;;9.27;7.10;;;20.80;91.20;;;;;;4994585;28;20821;-52
2022/06/12 01:08:32;;;;;;;7.07;6.10;;;20.80;91.50;;;;;;4994178;28;20498;-50
2022/06/12 01:11:04;;;;;;;8.23;5.97;;;20.70;91.80;;;;;;4994741;28;20431;-50
2022/06/12 01:13:35;;;;;;;9.13;6.90;;;20.50;91.80;;;;;;4994421;28;20442;-50
2022/06/12 01:16:06;;;;;;;11.23;7.23;;;20.40;91.90;;;;;;4994450;28;20463;-50
2022/06/12 01:18:39;;;;;;;9.23;6.87;;;20.50;92.20;;;;;;4994191;28;20451;-50
2022/06/12 01:21:26;;;;;;;9.23;6.23;;;20.30;92.40;;;;;;4994863;28;20810;-49
2022/06/12 01:24:13;;;;;;;7.47;6.63;;;20.30;92.50;;;;;;4994367;28;20529;-50
2022/06/12 01:27:13;;;;;;;7.47;6.87;;;20.30;92.60;;;;;;4994467;28;20459;-50
2022/06/12 01:29:51;;;;;;;9.80;6.80;;;20.30;93.10;;;;;;4992561;28;20934;-50
2022/06/12 01:32:22;;;;;;;10.23;6.93;;;20.10;93.00;;;;;;4994230;28;20536;-50
2022/06/12 01:34:54;;;;;;;9.53;7.07;;;20.20;93.20;;;;;;4994007;28;20439;-50
2022/06/12 01:37:35;;;;;;;10.67;7.70;;;20.20;93.30;;;;;;4993903;28;20503;-50
2022/06/12 01:40:12;;;;;;;11.07;8.47;;;20.20;93.50;;;;;;4993898;28;20485;-50
2022/06/12 01:42:47;;;;;;;7.30;6.60;;;20.20;93.70;;;;;;4993865;28;20552;-50
2022/06/12 01:45:25;;;;;;;7.43;6.83;;;20.10;93.80;;;;;;4993805;28;20948;-49
2022/06/12 01:47:58;;;;;;;9.07;7.60;;;20.00;93.90;;;;;;4993565;28;20494;-50
2022/06/12 01:50:33;;;;;;;9.03;8.13;;;20.10;94.00;;;;;;4993550;28;20920;-50
2022/06/12 01:53:07;;;;;;;8.10;7.30;;;20.00;94.00;;;;;;4993941;28;20837;-50
2022/06/12 01:55:45;;;;;;;7.93;7.20;;;20.10;94.20;;;;;;4993665;28;20431;-49
2022/06/12 01:58:19;;;;;;;8.50;6.70;;;19.80;94.20;;;;;;4993590;28;21095;-49
2022/06/12 02:00:52;;;;;;;8.07;7.13;;;20.10;94.40;;;;;;4993008;28;20430;-50
2022/06/12 02:03:28;;;;;;;9.00;7.33;;;20.10;94.60;;;;;;4993655;28;20445;-50
2022/06/12 02:06:00;;;;;;;8.23;7.33;;;20.10;94.60;;;;;;4993552;28;20479;-49
2022/06/12 02:08:36;;;;;;;7.40;6.40;;;20.10;94.60;;;;;;4993050;28;20566;-50
2022/06/12 02:14:00;;;;;;;8.20;7.40;;;20.10;94.70;;;;;;4993390;28;20441;-50
2022/06/12 02:16:32;;;;;;;9.10;7.13;;;19.90;94.60;;;;;;4993173;28;20538;-51
2022/06/12 02:19:03;;;;;;;10.40;7.53;;;20.50;94.90;;;;;;4992913;28;20434;-51
2022/06/12 02:21:33;;;;;;;8.50;7.37;;;20.30;94.70;;;;;;4993384;28;20434;-51
2022/06/12 02:24:04;;;;;;;7.03;6.33;;;20.30;94.70;;;;;;4993303;28;20462;-51
2022/06/12 02:26:38;;;;;;;7.63;6.93;;;20.30;94.70;;;;;;4993227;28;20453;-50
2022/06/12 02:29:12;;;;;;;7.83;6.53;;;20.50;94.80;;;;;;4992817;28;20437;-50
2022/06/12 02:31:45;;;;;;;9.67;6.70;;;20.40;94.70;;;;;;4993237;28;20433;-52
2022/06/12 02:34:16;;;;;;;7.57;6.87;;;20.10;94.60;;;;;;4993159;28;20449;-51
2022/06/12 02:36:47;;;;;;;11.10;7.57;;;20.50;94.70;;;;;;4991597;28;20489;-50
2022/06/12 02:39:19;;;;;;;9.17;7.63;;;20.50;94.70;;;;;;4992671;28;20456;-51
2022/06/12 02:41:50;;;;;;;7.37;6.77;;;20.50;94.70;;;;;;4992944;28;20442;-51
2022/06/12 02:44:23;;;;;;;7.73;7.03;;;20.50;94.70;;;;;;4992871;28;20530;-50
2022/06/12 02:47:00;;;;;;;7.43;6.73;;;20.50;94.70;;;;;;4992491;28;20457;-51
2022/06/12 02:49:27;;;;;;;9.17;7.03;;;20.80;94.90;;;;;;4992495;28;20935;-50
2022/06/12 02:52:03;;;;;;;7.30;6.60;;;20.40;94.70;;;;;;4992846;28;20438;-51
2022/06/12 02:54:35;;;;;;;8.30;6.77;;;20.40;94.60;;;;;;4992742;28;20422;-51
2022/06/12 02:57:11;;;;;;;8.37;6.57;;;20.50;94.70;;;;;;4992299;28;20462;-50
2022/06/12 02:59:48;;;;;;;7.23;6.53;;;20.60;94.70;;;;;;4992296;28;20430;-53
2022/06/12 03:02:19;;;;;;;10.90;6.80;;;20.60;94.70;;;;;;4992569;28;20445;-51
2022/06/12 03:04:50;;;;;;;7.90;7.00;;;20.40;94.60;;;;;;4992548;28;20434;-50
2022/06/12 03:07:17;;;;;;;8.23;6.60;;;20.30;94.60;;;;;;4993086;28;20484;-51
2022/06/12 03:09:44;;;;;;;8.07;6.43;;;20.70;94.70;;;;;;4992162;28;20447;-50
2022/06/12 03:12:11;;;;;;;7.73;7.03;;;20.60;94.60;;;;;;4992923;28;20442;-50
2022/06/12 03:14:38;;;;;;;6.93;6.23;;;20.70;94.60;;;;;;4991089;28;20816;-50
2022/06/12 03:17:05;;;;;;;7.87;6.60;;;20.60;94.50;;;;;;4992117;28;20461;-50
2022/06/12 03:19:42;;;;;;;8.20;6.87;;;20.60;94.40;;;;;;4991960;28;20438;-51
2022/06/12 03:22:20;;;;;;;7.33;6.57;;;20.70;94.50;;;;;;4992415;28;20439;-51
2022/06/12 03:24:54;;;;;;;7.97;7.33;;;20.60;94.50;;;;;;4992811;28;20436;-51
2022/06/12 03:27:32;;;;;;;8.50;6.43;;;20.30;94.30;;;;;;4992139;28;20536;-51
2022/06/12 03:30:07;;;;;;;9.53;7.27;;;20.70;94.50;;;;;;4992061;28;20935;-51
2022/06/12 03:32:39;;;;;;;7.30;6.70;;;20.70;94.50;;;;;;4992281;28;20950;-50
2022/06/12 03:35:16;;;;;;;8.17;7.30;;;20.60;94.50;;;;;;4990746;28;20454;-51
2022/06/12 03:37:49;;;;;;;9.07;7.00;;;20.60;94.60;;;;;;4992388;28;20454;-50
2022/06/12 03:40:24;;;;;;;7.97;7.27;;;20.50;94.60;;;;;;4991803;28;20438;-51
2022/06/12 03:42:57;;;;;;;7.87;7.07;;;20.60;94.60;;;;;;4992214;28;20850;-51
2022/06/12 03:45:30;;;;;;;6.50;5.90;;;20.70;94.60;;;;;;4992064;28;20451;-51
2022/06/12 03:48:06;;;;;;;8.13;7.30;;;20.70;94.60;;;;;;4991872;28;20484;-50
2022/06/12 03:50:42;;;;;;;10.00;7.40;;;20.80;94.60;;;;;;4991872;28;20943;-51
2022/06/12 03:53:14;;;;;;;8.40;7.70;;;20.70;94.60;;;;;;4992113;28;20446;-50
2022/06/12 03:58:39;;;;;;;7.80;7.10;;;20.70;94.60;;;;;;4991949;28;20938;-51
2022/06/12 04:01:07;;;;;;;8.30;7.27;;;20.60;94.60;;;;;;4992084;28;20425;-51
2022/06/12 04:03:38;;;;;;;8.90;7.77;;;20.60;94.70;;;;;;4992113;28;20447;-51
2022/06/12 04:06:12;;;;;;;9.77;7.50;;;20.20;94.70;;;;;;4992220;28;20976;-50
2022/06/12 04:08:43;;;;;;;9.07;7.03;;;20.50;94.90;;;;;;4993574;28;20474;-50
2022/06/12 04:11:11;;;;;;;9.73;7.90;;;20.70;95.20;;;;;;4996188;28;20447;-51
2022/06/12 04:13:39;;;;;;;9.27;7.97;;;20.40;95.40;;;;;;4995945;28;20519;-51
2022/06/12 04:16:13;;;;;;;12.43;7.53;;;20.70;96.10;;;;;;4995852;28;20466;-51
2022/06/12 04:18:39;;;;;;;10.43;8.10;;;20.40;96.30;;;;;;4995387;28;20994;-51
2022/06/12 04:21:11;;;;;;;10.23;8.17;;;20.10;96.30;;;;;;4994625;28;20447;-51
2022/06/12 04:23:45;;;;;;;10.10;9.10;;;20.40;96.70;;;;;;4995650;28;20790;-51
2022/06/12 04:26:23;;;;;;;9.90;9.10;;;20.40;97.50;;;;;;4995706;28;20449;-51
2022/06/12 04:28:57;;;;;;;10.80;9.30;;;20.30;97.30;;;;;;4995086;28;20503;-50
2022/06/12 04:31:24;;;;;;;9.83;8.87;;;20.20;97.40;;;;;;4995357;28;20442;-50
2022/06/12 04:34:07;;;;;;;10.30;9.30;;;20.60;97.60;;;;;;4995553;28;20437;-51
2022/06/12 04:36:35;;;;;;;10.37;9.37;;;20.60;97.60;;;;;;4995224;28;20474;-51
2022/06/12 04:39:02;;;;;;;9.37;8.47;;;20.70;97.60;;;;;;4994986;28;20779;-51
2022/06/12 04:41:31;;;;;;;11.23;9.20;;;20.80;97.50;;;;;;4995317;28;20457;-51
2022/06/12 04:43:58;;;;;;;9.80;8.83;;;20.70;97.50;;;;;;4995136;28;20443;-51
2022/06/12 04:46:26;;;;;;;9.70;8.73;;;20.60;97.70;;;;;;4994930;28;20461;-51
2022/06/12 04:48:56;;;;;;;16.57;9.87;;;20.50;97.70;;;;;;4994701;28;20482;-51
2022/06/12 04:51:23;;;;;;;12.90;9.63;;;20.60;98.20;;;;;;4995324;28;20810;-51
2022/06/12 04:53:51;;;;;;;10.83;9.40;;;20.80;98.50;;;;;;4995207;28;20440;-51
2022/06/12 04:56:20;;;;;;;11.17;10.07;;;20.20;98.30;;;;;;4994921;28;20531;-50
2022/06/12 04:58:47;;;;;;;10.67;9.57;;;20.50;99.00;;;;;;4994602;28;20928;-51
2022/06/12 05:01:14;;;;;;;11.73;9.60;;;20.80;99.50;;;;;;4993348;28;20976;-51
2022/06/12 05:03:41;;;;;;;11.13;10.00;;;21.10;99.90;;;;;;4994714;28;20450;-50
2022/06/12 05:06:08;;;;;;;11.67;10.53;;;20.50;99.80;;;;;;4994665;28;20450;-51
2022/06/12 05:08:35;;;;;;;11.80;10.00;;;20.60;99.90;;;;;;4994196;28;20474;-51
2022/06/12 05:11:03;;;;;;;11.23;10.13;;;20.60;99.90;;;;;;4994777;28;20921;-50
2022/06/12 05:13:30;;;;;;;10.60;9.70;;;20.60;99.90;;;;;;4994616;28;20437;-51
2022/06/12 05:15:58;;;;;;;11.67;10.53;;;20.60;99.90;;;;;;4993120;28;20472;-50
2022/06/12 05:18:25;;;;;;;11.93;10.83;;;20.50;99.90;;;;;;4993839;28;21004;-50
2022/06/12 05:20:52;;;;;;;11.70;10.63;;;20.50;99.90;;;;;;4994400;28;20796;-51
2022/06/12 05:23:18;;;;;;;11.83;10.73;;;20.40;99.90;;;;;;4994335;28;20444;-51
2022/06/12 05:25:46;;;;;;;14.13;11.60;;;20.70;99.90;;;;;;4993926;28;20517;-51
2022/06/12 05:28:15;;;;;;;12.30;11.20;;;20.70;99.90;;;;;;4994219;28;20895;-52
2022/06/12 05:30:42;;;;;;;11.83;10.67;;;20.70;99.90;;;;;;4993887;28;20539;-51
2022/06/12 05:33:09;;;;;;;11.57;10.43;;;21.20;99.90;;;;;;4994154;28;20805;-50
2022/06/12 05:35:37;;;;;;;11.53;10.53;;;20.80;99.90;;;;;;4993767;28;21074;-51
2022/06/12 05:38:05;;;;;;;11.00;10.00;;;20.80;99.90;;;;;;4994640;28;20441;-51
2022/06/12 05:40:35;;;;;;;11.87;10.87;;;20.80;99.90;;;;;;4993586;28;20443;-52
2022/06/12 05:43:03;;;;;;;11.13;10.13;;;20.70;99.90;;;;;;4993913;28;20944;-51
2022/06/12 05:45:32;;;;;;;13.30;10.30;;;20.60;99.90;;;;;;4993838;28;20447;-51
2022/06/12 05:48:02;;;;;;;12.73;11.37;;;20.80;99.90;;;;;;4994117;28;20522;-51
2022/06/12 05:50:31;;;;;;;11.73;10.73;;;20.80;99.90;;;;;;4993540;28;20445;-51
2022/06/12 05:52:58;;;;;;;11.57;10.47;;;20.80;99.90;;;;;;4993883;28;20446;-51
2022/06/12 05:55:25;;;;;;;10.80;9.80;;;21.00;99.90;;;;;;4993781;28;20443;-52
2022/06/12 05:57:51;;;;;;;11.00;10.10;;;20.70;99.90;;;;;;4992479;28;20443;-51
2022/06/12 06:00:25;;;;;;;11.30;10.30;;;21.00;99.90;;;;;;4993580;28;20434;-51
2022/06/12 06:02:53;;;;;;;12.60;11.40;;;20.90;99.90;;;;;;4993760;28;20444;-51
2022/06/12 06:05:20;;;;;;;10.83;9.70;;;21.00;99.90;;;;;;4993463;28;20465;-52
2022/06/12 06:07:47;;;;;;;12.30;11.07;;;21.10;99.90;;;;;;4993734;28;20451;-52
2022/06/12 06:10:17;;;;;;;11.50;10.40;;;21.20;99.90;;;;;;4993233;28;20474;-51
2022/06/12 06:12:44;;;;;;;11.80;10.80;;;21.60;99.90;;;;;;4993478;28;20444;-52
2022/06/12 06:15:11;;;;;;;11.17;10.17;;;21.40;99.90;;;;;;4992062;28;20449;-52
2022/06/12 06:17:39;;;;;;;12.30;11.00;;;21.60;99.90;;;;;;4993245;28;20454;-51
2022/06/12 06:20:09;;;;;;;11.23;10.13;;;21.50;99.90;;;;;;4993090;28;20941;-52
2022/06/12 06:22:36;;;;;;;11.17;8.97;;;21.70;99.90;;;;;;4993384;28;20439;-51
2022/06/12 06:25:04;;;;;;;9.43;8.47;;;21.50;99.90;;;;;;4993564;28;20463;-52
2022/06/12 06:27:31;;;;;;;9.93;9.13;;;21.50;99.50;;;;;;4993294;28;20815;-52
2022/06/12 06:29:58;;;;;;;13.20;8.50;;;21.50;99.40;;;;;;4992524;28;20487;-52
2022/06/12 06:32:24;;;;;;;11.20;10.10;;;21.40;99.60;;;;;;4992753;28;20940;-51
2022/06/12 06:34:51;;;;;;;10.47;9.47;;;21.60;99.60;;;;;;4993301;28;20790;-51
2022/06/12 06:37:19;;;;;;;10.60;9.60;;;21.80;99.70;;;;;;5030498;22;20499;-45
2022/06/12 06:39:45;;;;;;;10.03;9.03;;;21.60;99.70;;;;;;5031502;28;20958;-45
2022/06/12 06:42:12;;;;;;;9.97;9.07;;;21.70;99.50;;;;;;5031715;28;20454;-45
2022/06/12 06:47:27;;;;;;;11.17;10.07;;;21.90;98.90;;;;;;5031426;28;20958;-46
2022/06/12 06:49:54;;;;;;;9.10;8.20;;;22.10;98.90;;;;;;5031201;28;20891;-46
2022/06/12 06:52:22;;;;;;;10.53;9.60;;;22.00;98.80;;;;;;5031097;28;20438;-46
2022/06/12 06:54:49;;;;;;;9.10;8.30;;;22.20;99.10;;;;;;5031516;28;20446;-47
2022/06/12 06:57:17;;;;;;;10.17;9.27;;;22.20;98.80;;;;;;5031091;28;20455;-46
2022/06/12 06:59:44;;;;;;;11.80;9.90;;;22.30;98.50;;;;;;5029558;28;20467;-47
2022/06/12 07:02:12;;;;;;;10.50;9.40;;;22.30;98.30;;;;;;5031281;28;20442;-46
2022/06/12 07:04:40;;;;;;;9.97;8.80;;;22.40;98.00;;;;;;5031162;28;20467;-48
2022/06/12 07:07:08;;;;;;;9.73;8.83;;;22.50;97.90;;;;;;5030974;28;20478;-45
2022/06/12 07:09:37;;;;;;;15.70;9.93;;;22.40;97.70;;;;;;5030719;28;20478;-46
2022/06/12 07:12:04;;;;;;;10.63;9.67;;;22.50;97.60;;;;;;5030823;28;20450;-47
2022/06/12 07:14:31;;;;;;;8.07;7.40;;;22.50;97.30;;;;;;5030947;28;20431;-46
2022/06/12 07:16:58;;;;;;;9.43;8.63;;;22.50;97.20;;;;;;5030647;28;20796;-47
2022/06/12 07:19:25;;;;;;;8.10;7.33;;;22.40;96.90;;;;;;5030242;28;20443;-46
2022/06/12 07:21:52;;;;;;;9.00;8.20;;;22.40;96.60;;;;;;5030652;28;20430;-47
2022/06/12 07:24:19;;;;;;;10.03;8.97;;;22.60;96.80;;;;;;5030353;28;20433;-46
2022/06/12 07:26:48;;;;;;;10.60;8.63;;;22.20;96.50;;;;;;5030460;28;20458;-47
2022/06/12 07:29:17;;;;;;;9.20;8.20;;;22.30;96.70;;;;;;5030232;28;20828;-46
2022/06/12 07:31:45;;;;;;;12.17;8.40;;;22.40;96.90;;;;;;5030741;28;20439;-46
2022/06/12 07:34:12;;;;;;;11.03;8.60;;;22.40;96.90;;;;;;5030755;28;20450;-47
2022/06/12 07:36:41;;;;;;;8.87;8.07;;;22.50;96.90;;;;;;5030728;28;20467;-49
2022/06/12 07:39:10;;;;;;;11.03;8.00;;;22.40;96.70;;;;;;5028734;28;20449;-48
2022/06/12 07:41:38;;;;;;;9.50;8.57;;;22.60;96.60;;;;;;5031006;28;20999;-47
2022/06/12 07:44:07;;;;;;;9.43;8.63;;;22.50;96.50;;;;;;5034675;28;20436;-46
2022/06/12 07:46:34;;;;;;;8.27;7.57;;;22.60;96.50;;;;;;5034293;28;20450;-45
2022/06/12 07:49:01;;;;;;;11.10;8.47;;;22.70;96.60;;;;;;5034034;28;20481;-46
2022/06/12 07:51:28;;;;;;;7.90;7.10;;;22.30;95.70;;;;;;5034342;28;20932;-48
2022/06/12 07:53:55;;;;;;;7.80;7.10;;;22.60;95.60;;;;;;5035895;28;20440;-46
2022/06/12 07:56:23;;;;;;;8.63;6.50;;;22.90;95.20;;;;;;5034020;28;20457;-45
2022/06/12 07:58:50;;;;;;;7.90;6.73;;;23.10;94.90;;;;;;5032599;28;20467;-45
2022/06/12 08:01:22;;;;;;;7.37;6.00;;;23.30;94.60;;;;;;5034399;28;20432;-46
2022/06/12 08:03:49;;;;;;;7.03;6.27;;;23.40;94.30;;;;;;5034277;28;20440;-46
2022/06/12 08:06:16;;;;;;;6.73;6.07;;;23.50;94.20;;;;;;5033970;28;20507;-47
2022/06/12 08:08:43;;;;;;;7.00;6.40;;;23.50;94.00;;;;;;5033748;28;20833;-47
2022/06/12 08:11:10;;;;;;;7.07;6.27;;;23.60;93.90;;;;;;5034197;28;20445;-46
2022/06/12 08:13:37;;;;;;;9.73;5.50;;;23.70;93.70;;;;;;5034314;28;20438;-46
2022/06/12 08:16:05;;;;;;;8.20;6.53;;;23.70;93.40;;;;;;5034048;28;20487;-45
2022/06/12 08:18:33;;;;;;;6.03;5.03;;;23.80;93.20;;;;;;5033607;28;20448;-47
2022/06/12 08:21:03;;;;;;;5.33;4.93;;;24.00;92.80;;;;;;5034236;28;20759;-45
2022/06/12 08:23:37;;;;;;;5.33;4.37;;;24.10;92.10;;;;;;5033945;28;20450;-46
2022/06/12 08:26:06;;;;;;;6.37;3.90;;;24.10;91.30;;;;;;5033757;28;20460;-46
2022/06/12 08:28:35;;;;;;;4.43;4.03;;;24.30;91.10;;;;;;5033459;28;20961;-46
2022/06/12 08:31:04;;;;;;;6.37;3.50;;;24.40;90.80;;;;;;5033892;28;20479;-45
2022/06/12 08:33:33;;;;;;;5.60;5.00;;;24.50;90.30;;;;;;5033858;28;20451;-47
2022/06/12 08:36:00;;;;;;;4.40;3.97;;;24.50;90.00;;;;;;5033296;28;20917;-46
2022/06/12 08:38:27;;;;;;;6.40;3.70;;;24.60;89.20;;;;;;5033804;28;20944;-49
2022/06/12 08:41:00;;;;;;;4.30;3.23;;;24.70;88.70;;;;;;5033735;28;20458;-46
2022/06/12 08:43:34;;;;;;;4.47;3.10;;;24.70;87.80;;;;;;5033596;28;20541;-46
2022/06/12 08:46:08;;;;;;;5.47;3.53;;;24.90;87.50;;;;;;5033726;28;20464;-46
2022/06/12 08:48:45;;;;;;;6.40;2.90;;;25.00;86.70;;;;;;5033069;28;20431;-45
2022/06/12 08:51:17;;;;;;;4.37;3.37;;;25.00;85.90;;;;;;5033648;28;20438;-51
2022/06/12 08:53:47;;;;;;;4.30;3.50;;;25.10;85.70;;;;;;5032641;28;20460;-47
2022/06/12 08:56:19;;;;;;;5.10;3.20;;;25.20;85.00;;;;;;5033423;28;20456;-48
2022/06/12 08:58:50;;;;;;;4.30;3.13;;;25.10;84.10;;;;;;5033066;28;20447;-47
2022/06/12 09:01:17;;;;;;;4.40;3.07;;;25.40;83.90;;;;;;5033514;28;20446;-47
2022/06/12 09:03:49;;;;;;;3.33;2.60;;;25.30;83.00;;;;;;5033368;28;20446;-47
2022/06/12 09:06:32;;;;;;;4.33;2.40;;;25.40;82.20;;;;;;5033488;28;20521;-48
2022/06/12 09:09:04;;;;;;;4.03;3.07;;;25.40;81.60;;;;;;5032871;28;20920;-47
2022/06/12 09:11:37;;;;;;;4.60;2.97;;;25.50;81.20;;;;;;5033758;28;20439;-47
2022/06/12 09:14:26;;;;;;;8.20;3.70;;;25.60;81.40;;;;;;5033476;28;20526;-45
2022/06/12 09:17:02;;;;;;;7.50;3.10;;;25.80;79.80;;;;;;5032754;28;20460;-47
2022/06/12 09:19:36;;;;;;;3.37;2.73;;;25.90;80.10;;;;;;5031173;28;20439;-48
2022/06/12 09:22:12;;;;;;;6.30;3.47;;;25.90;79.60;;;;;;5032269;28;20438;-47
2022/06/12 09:24:46;;;;;;;6.53;3.00;;;25.90;79.10;;;;;;5033331;28;20463;-48
2022/06/12 09:27:21;;;;;;;5.20;3.30;;;25.90;77.90;;;;;;5032472;28;20959;-46
2022/06/12 09:29:52;;;;;;;6.20;3.13;;;26.00;78.40;;;;;;5032820;28;20485;-46
2022/06/12 09:32:30;;;;;;;8.23;2.97;;;26.00;78.40;;;;;;5032957;28;20435;-46
2022/06/12 09:35:06;;;;;;;3.97;2.87;;;26.00;78.10;;;;;;5032441;28;20450;-48
2022/06/12 09:40:54;;;;;;;4.60;3.13;;;25.80;77.10;;;;;;4990576;28;20496;-50
2022/06/12 09:43:28;;;;;;;5.17;3.40;;;25.80;76.50;;;;;;4975126;28;20453;-50
2022/06/12 09:46:00;;;;;;;6.60;3.57;;;25.80;76.50;;;;;;5014472;28;20451;-49
2022/06/12 09:48:40;;;;;;;5.37;4.13;;;25.80;76.60;;;;;;5033064;28;20446;-50
2022/06/12 09:51:16;;;;;;;5.47;2.63;;;26.10;76.50;;;;;;5032941;28;20485;-50
2022/06/12 09:54:08;;;;;;;5.57;2.90;;;26.00;75.80;;;;;;5032744;28;20431;-49
2022/06/12 09:56:43;;;;;;;4.63;2.77;;;26.00;75.20;;;;;;5032200;28;20917;-51
2022/06/12 09:59:14;;;;;;;4.80;2.90;;;26.10;75.40;;;;;;5032079;28;20431;-51
2022/06/12 10:01:44;;;;;;;9.00;3.30;;;26.10;75.60;;;;;;5032464;28;20916;-51
2022/06/12 10:04:16;;;;;;;3.80;2.87;;;26.20;75.70;;;;;;5030075;28;20820;-50
2022/06/12 10:06:49;;;;;;;4.87;3.13;;;26.20;74.80;;;;;;5032032;28;20471;-51
2022/06/12 10:09:20;;;;;;;7.53;3.50;;;26.20;74.90;;;;;;5030188;28;20454;-50
2022/06/12 10:11:52;;;;;;;5.93;2.93;;;26.20;74.60;;;;;;5031581;28;20438;-52
2022/06/12 10:14:23;;;;;;;7.80;3.93;;;26.30;74.50;;;;;;5032050;28;20434;-52
2022/06/12 10:16:55;;;;;;;6.73;3.23;;;26.40;74.80;;;;;;5032074;28;20507;-50
2022/06/12 10:19:28;;;;;;;4.33;2.60;;;26.40;73.50;;;;;;5031304;28;20439;-51
2022/06/12 10:22:02;;;;;;;9.10;3.10;;;26.30;71.70;;;;;;5031540;28;20440;-51
2022/06/12 10:24:28;;;;;;;7.73;2.80;;;26.30;72.00;;;;;;5032078;28;20431;-50
2022/06/12 10:26:58;;;;;;;6.17;3.07;;;26.20;72.00;;;;;;5031569;28;20512;-53
2022/06/12 10:29:26;;;;;;;8.33;3.50;;;26.20;72.30;;;;;;5031381;28;20442;-51
2022/06/12 10:32:01;;;;;;;5.70;2.57;;;26.10;72.80;;;;;;5031877;28;20431;-51
2022/06/12 10:34:30;;;;;;;5.57;2.53;;;26.20;73.20;;;;;;5030314;28;20550;-51
2022/06/12 10:37:10;;;;;;;7.90;3.17;;;26.30;73.40;;;;;;5030861;28;20471;-52
2022/06/12 10:39:37;;;;;;;7.60;3.50;;;26.40;73.20;;;;;;5031155;28;20443;-51
2022/06/12 10:42:07;;;;;;;5.10;3.30;;;26.50;73.40;;;;;;5031575;28;20454;-49
2022/06/12 10:44:38;;;;;;;3.90;2.43;;;26.50;72.50;;;;;;5031577;28;20432;-50
2022/06/12 10:47:17;;;;;;;9.17;3.10;;;26.50;71.50;;;;;;5032316;28;20454;-50
2022/06/12 10:49:45;;;;;;;6.77;2.77;;;26.60;70.60;;;;;;5031756;28;20857;-49
2022/06/12 10:52:18;;;;;;;5.13;2.30;;;26.60;69.40;;;;;;5031375;28;20442;-50
2022/06/12 10:54:45;;;;;;;8.13;2.60;;;26.60;67.00;;;;;;5031179;28;20438;-50
2022/06/12 10:57:37;;;;;;;5.07;2.00;;;26.60;66.90;;;;;;5031080;28;20452;-50
2022/06/12 11:00:08;;;;;;;5.67;2.00;;;26.60;65.70;;;;;;5029960;28;20517;-50
2022/06/12 11:03:07;;;;;;;3.70;1.97;;;26.50;65.50;;;;;;5030371;28;20892;-50
2022/06/12 11:05:47;;;;;;;3.67;2.03;;;26.50;65.10;;;;;;5029383;28;20929;-51
2022/06/12 11:08:42;;;;;;;4.90;2.27;;;26.30;64.60;;;;;;5030749;28;20469;-51
2022/06/12 11:11:17;;;;;;;4.57;2.20;;;26.30;64.20;;;;;;5030127;28;20586;-51
2022/06/12 11:13:59;;;;;;;5.13;2.37;;;26.30;64.90;;;;;;5030922;28;20423;-50
2022/06/12 11:16:40;;;;;;;5.17;2.77;;;26.50;64.90;;;;;;5030454;28;20495;-50
2022/06/12 11:19:24;;;;;;;2.80;2.03;;;26.60;64.00;;;;;;5029964;28;20768;-52
2022/06/12 11:21:59;;;;;;;6.10;2.37;;;26.70;63.40;;;;;;5030806;28;20801;-51
2022/06/12 11:24:33;;;;;;;4.47;2.40;;;26.80;62.90;;;;;;5029265;28;20435;-51
2022/06/12 11:27:41;;;;;;;4.03;2.30;;;26.80;63.60;;;;;;5031144;28;20479;-49
2022/06/12 11:30:21;;;;;;;5.57;2.50;;;26.90;63.30;;;;;;5029917;28;20477;-50
2022/06/12 11:33:04;;;;;;;6.80;2.60;;;26.90;62.70;;;;;;5030672;28;20557;-50
2022/06/12 11:35:43;;;;;;;6.70;3.10;;;26.90;62.30;;;;;;5030903;28;20863;-50
2022/06/12 11:38:28;;;;;;;4.13;2.63;;;26.80;62.60;;;;;;5030580;28;20460;-50
2022/06/12 11:41:02;;;;;;;6.80;3.37;;;26.90;63.20;;;;;;5029139;28;20454;-50
2022/06/12 11:43:33;;;;;;;6.63;2.47;;;27.00;63.50;;;;;;5030220;28;20598;-51
2022/06/12 11:46:12;;;;;;;5.53;2.53;;;26.90;61.90;;;;;;5030382;28;20435;-51
2022/06/12 11:49:05;;;;;;;10.67;2.77;;;26.90;61.60;;;;;;5029884;28;20522;-52
2022/06/12 11:51:42;;;;;;;9.07;2.57;;;26.90;61.10;;;;;;5030334;28;20871;-50
2022/06/12 11:54:34;;;;;;;6.87;2.23;;;26.90;60.80;;;;;;5030102;28;20435;-51
2022/06/12 11:57:13;;;;;;;4.50;2.13;;;26.80;60.00;;;;;;5030308;28;20463;-50
2022/06/12 11:59:50;;;;;;;6.00;3.07;;;26.90;60.60;;;;;;5030478;28;20797;-50
2022/06/12 12:02:27;;;;;;;7.43;2.90;;;26.70;60.60;;;;;;5030441;28;20502;-50
2022/06/12 12:05:17;;;;;;;4.90;2.33;;;26.60;60.90;;;;;;5029885;28;20825;-50
2022/06/12 12:07:55;;;;;;;4.40;2.40;;;26.50;60.60;;;;;;5030192;28;20470;-52
2022/06/12 12:10:38;;;;;;;5.60;2.70;;;26.40;61.00;;;;;;5029776;28;20480;-50
2022/06/12 12:13:11;;;;;;;8.00;2.10;;;26.40;61.30;;;;;;5031119;28;20424;-50
2022/06/12 12:15:44;;;;;;;4.10;2.13;;;26.40;61.10;;;;;;5029876;28;20439;-51
2022/06/12 12:18:17;;;;;;;6.10;2.67;;;26.50;60.60;;;;;;5030252;28;20499;-50
2022/06/12 12:20:45;;;;;;;7.17;2.87;;;26.60;60.60;;;;;;5030313;28;20916;-51
2022/06/12 12:23:16;;;;;;;8.50;3.90;;;26.60;61.00;;;;;;5030710;28;20429;-50
2022/06/12 12:25:49;;;;;;;5.13;2.70;;;26.60;60.70;;;;;;5030343;28;20446;-50
2022/06/12 12:28:22;;;;;;;8.60;2.40;;;26.60;60.80;;;;;;5030249;28;20921;-52
2022/06/12 12:30:52;;;;;;;5.43;2.57;;;26.60;60.80;;;;;;5033885;28;20471;-51
2022/06/12 12:33:20;;;;;;;5.00;2.50;;;26.60;60.50;;;;;;5034100;28;20434;-50
2022/06/12 12:41:25;;;;;;;4.93;2.63;;;26.50;59.90;;;;;;5033665;28;20427;-50
2022/06/12 12:43:56;;;;;;;6.03;2.00;;;26.60;59.70;;;;;;5033907;28;20431;-50
2022/06/12 12:46:25;;;;;;;8.03;2.70;;;26.70;59.60;;;;;;5033908;28;20458;-50
2022/06/12 12:48:54;;;;;;;5.00;2.80;;;26.70;58.80;;;;;;5033001;28;20435;-49
2022/06/12 12:51:26;;;;;;;9.20;3.30;;;26.70;58.70;;;;;;5033992;28;20473;-50
2022/06/12 12:53:53;;;;;;;4.67;2.83;;;26.70;58.70;;;;;;5033489;28;20448;-51
2022/06/12 12:56:30;;;;;;;4.40;2.83;;;26.60;59.20;;;;;;5033341;28;20463;-51
2022/06/12 12:59:01;;;;;;;5.57;3.47;;;26.60;58.70;;;;;;5033370;28;20435;-51
2022/06/12 13:01:35;;;;;;;5.60;2.43;;;26.60;59.00;;;;;;5033891;28;20440;-50
2022/06/12 13:04:13;;;;;;;4.13;2.47;;;26.50;59.10;;;;;;5033001;28;20430;-47
2022/06/12 13:06:51;;;;;;;6.00;2.77;;;26.40;58.30;;;;;;5032888;28;20495;-48
2022/06/12 13:09:57;;;;;;;5.57;3.40;;;26.40;58.10;;;;;;5032536;28;20951;-48
2022/06/12 13:12:49;;;;;;;5.60;3.50;;;26.40;57.70;;;;;;5032589;28;20442;-48
2022/06/12 13:15:29;;;;;;;5.73;2.60;;;26.40;57.10;;;;;;5030679;28;20470;-49
2022/06/12 13:18:07;;;;;;;5.83;2.40;;;26.40;56.90;;;;;;5032436;28;20458;-48
2022/06/12 13:20:48;;;;;;;6.57;3.10;;;26.40;56.00;;;;;;5030965;28;20951;-47
2022/06/12 13:23:31;;;;;;;5.50;3.07;;;26.40;55.80;;;;;;5032275;28;20436;-46
2022/06/12 13:26:02;;;;;;;6.60;2.20;;;26.40;55.70;;;;;;5031167;28;20455;-46
2022/06/12 13:28:32;;;;;;;5.10;2.83;;;26.30;56.10;;;;;;5032664;28;20920;-48